createdAt,value
2023-02-14T00:00:28.150Z,100213.05
2023-02-14T00:01:36.775Z,100201.94
2023-02-14T00:02:45.845Z,100206.52
2023-02-14T00:03:55.694Z,100214.83
2023-02-14T00:05:08.109Z,100225.62
2023-02-14T00:06:17.777Z,100203.15
2023-02-14T00:07:26.905Z,100213.91
2023-02-14T00:08:44.733Z,100208.33
2023-02-14T00:09:54.346Z,100203.15
2023-02-14T00:11:05.317Z,100206.38
2023-02-14T00:12:14.825Z,100200.98
2023-02-14T00:13:24.698Z,100210.39
2023-02-14T00:14:53.531Z,100204.46
2023-02-14T00:16:03.497Z,100197.25
2023-02-14T00:17:12.501Z,100207.09
2023-02-14T00:18:21.973Z,100195.41
2023-02-14T00:19:31.325Z,100211.83
2023-02-14T00:20:40.387Z,100194.41
2023-02-14T00:21:49.797Z,100194.13
2023-02-14T00:23:00.552Z,100202.79
2023-02-14T00:24:11.474Z,100204.60
2023-02-14T00:25:20.127Z,100204.18
2023-02-14T00:26:29.863Z,100207.98
2023-02-14T00:27:38.635Z,100198.00
2023-02-14T00:28:48.655Z,100199.27
2023-02-14T00:30:03.545Z,100207.19
2023-02-14T00:31:12.166Z,100200.58
2023-02-14T00:32:21.864Z,100197.72
2023-02-14T00:33:30.405Z,100200.58
2023-02-14T00:34:41.088Z,100203.69
2023-02-14T00:35:52.343Z,100195.19
2023-02-14T00:37:05.023Z,100193.75
2023-02-14T00:38:13.664Z,100204.92
2023-02-14T00:39:24.348Z,100196.55
2023-02-14T00:40:33.361Z,100208.19
2023-02-14T00:41:43.483Z,100206.20
2023-02-14T00:42:54.937Z,100209.47
2023-02-14T00:44:06.130Z,100203.78
2023-02-14T00:45:17.278Z,100196.02
2023-02-14T00:46:26.725Z,100200.66
2023-02-14T00:47:35.385Z,100199.84
2023-02-14T00:50:03.107Z,100201.48
2023-02-14T00:51:12.306Z,100197.06
2023-02-14T00:52:21.151Z,100210.46
2023-02-14T00:53:30.288Z,100211.84
2023-02-14T00:54:39.396Z,100215.19
2023-02-14T00:55:49.451Z,100206.59
2023-02-14T00:56:58.306Z,100195.02
2023-02-14T00:58:08.295Z,100214.79
2023-02-14T00:59:17.089Z,100200.13
2023-02-14T01:00:26.069Z,100210.11
2023-02-14T01:01:37.155Z,100191.94
2023-02-14T01:02:46.895Z,100194.73
2023-02-14T01:03:58.109Z,100198.39
2023-02-14T01:05:07.896Z,100194.19
2023-02-14T01:06:19.195Z,100196.56
2023-02-14T01:07:29.068Z,100189.71
2023-02-14T01:08:39.006Z,100185.97
2023-02-14T01:09:47.947Z,100190.30
2023-02-14T01:10:57.375Z,100190.00
2023-02-14T01:12:08.648Z,100187.48
2023-02-14T01:13:18.570Z,100185.16
2023-02-14T01:14:27.220Z,100182.41
2023-02-14T01:16:59.255Z,100170.46
2023-02-14T01:19:24.605Z,100170.64
2023-02-14T01:20:34.965Z,100183.70
2023-02-14T01:21:45.755Z,100176.58
2023-02-14T01:22:55.515Z,100175.33
2023-02-14T01:24:07.213Z,100180.19
2023-02-14T01:25:16.925Z,100191.85
2023-02-14T01:26:26.996Z,100174.73
2023-02-14T01:27:36.323Z,100169.36
2023-02-14T01:28:46.732Z,100178.28
2023-02-14T01:29:56.015Z,100168.55
2023-02-14T01:32:34.057Z,100165.89
2023-02-14T01:33:45.434Z,100163.11
2023-02-14T01:34:54.986Z,100153.61
2023-02-14T01:36:07.332Z,100151.45
2023-02-14T01:37:16.963Z,100150.42
2023-02-14T01:38:26.188Z,100148.97
2023-02-14T01:39:35.233Z,100144.07
2023-02-14T01:42:01.871Z,100132.36
2023-02-14T01:43:17.138Z,100127.08
2023-02-14T01:44:30.311Z,100139.14
2023-02-14T01:45:41.270Z,100145.58
2023-02-14T01:46:51.385Z,100151.53
2023-02-14T01:48:01.120Z,100135.16
2023-02-14T01:49:26.482Z,100131.64
2023-02-14T01:50:39.955Z,100129.27
2023-02-14T01:51:55.929Z,100133.23
2023-02-14T01:53:08.233Z,100149.55
2023-02-14T01:54:21.939Z,100134.71
2023-02-14T01:55:35.432Z,100139.04
2023-02-14T01:56:48.175Z,100134.05
2023-02-14T01:58:03.838Z,100119.07
2023-02-14T01:59:15.940Z,100120.22
2023-02-14T02:00:45.048Z,100116.03
2023-02-14T02:01:54.742Z,100101.35
2023-02-14T02:03:05.194Z,100106.67
2023-02-14T02:05:48.104Z,100096.62
2023-02-14T02:07:07.464Z,100100.02
2023-02-14T02:08:17.737Z,100095.63
2023-02-14T02:09:42.856Z,100096.44
2023-02-14T02:11:00.316Z,100088.23
2023-02-14T02:12:17.138Z,100092.25
2023-02-14T02:13:26.378Z,100104.00
2023-02-14T02:14:38.476Z,100100.91
2023-02-14T02:15:51.611Z,100105.96
2023-02-14T02:17:07.508Z,100101.06
2023-02-14T02:20:18.598Z,100097.66
2023-02-14T02:21:38.439Z,100095.29
2023-02-14T02:23:12.181Z,100081.47
2023-02-14T02:24:25.626Z,100064.76
2023-02-14T02:25:48.140Z,100064.98
2023-02-14T02:27:22.036Z,100068.64
2023-02-14T02:28:43.354Z,100066.98
2023-02-14T02:30:04.917Z,100062.28
2023-02-14T02:31:33.791Z,100070.64
2023-02-14T02:34:59.788Z,100074.00
2023-02-14T02:36:25.239Z,100081.46
2023-02-14T02:37:54.381Z,100086.91
2023-02-14T02:39:34.317Z,100073.19
2023-02-14T02:41:07.112Z,100072.67
2023-02-14T02:42:25.269Z,100079.23
2023-02-14T02:43:38.099Z,100087.59
2023-02-14T02:46:49.349Z,100087.00
2023-02-14T02:48:12.051Z,100095.00
2023-02-14T02:50:19.220Z,100096.27
2023-02-14T02:53:18.173Z,100102.66
2023-02-14T02:54:32.707Z,100089.19
2023-02-14T02:56:12.366Z,100106.15
2023-02-14T02:57:26.867Z,100113.06
2023-02-14T03:00:14.696Z,100125.98
2023-02-14T03:01:28.302Z,100121.14
2023-02-14T03:02:59.324Z,100132.56
2023-02-14T03:04:29.905Z,100122.58
2023-02-14T03:05:40.635Z,100128.20
2023-02-14T03:06:51.189Z,100138.84
2023-02-14T03:08:00.097Z,100135.01
2023-02-14T03:10:34.721Z,100152.06
2023-02-14T03:13:38.622Z,100151.47
2023-02-14T03:15:06.797Z,100149.49
2023-02-14T03:16:28.982Z,100149.18
2023-02-14T03:17:59.040Z,100148.44
2023-02-14T03:19:33.136Z,100161.20
2023-02-14T03:21:01.323Z,100147.87
2023-02-14T03:23:46.044Z,100158.53
2023-02-14T03:25:08.702Z,100163.00
2023-02-14T03:26:36.268Z,100167.62
2023-02-14T03:27:49.570Z,100160.93
2023-02-14T03:29:15.078Z,100157.56
2023-02-14T03:30:29.534Z,100169.36
2023-02-14T03:34:42.408Z,100139.44
2023-02-14T03:36:00.888Z,100162.14
2023-02-14T03:37:18.531Z,100164.51
2023-02-14T03:38:49.948Z,100156.81
2023-02-14T03:40:13.044Z,100168.41
2023-02-14T03:41:27.406Z,100161.30
2023-02-14T03:44:01.189Z,100151.65
2023-02-14T03:46:47.244Z,100145.66
2023-02-14T03:48:00.098Z,100151.39
2023-02-14T03:49:12.572Z,100159.59
2023-02-14T03:50:28.929Z,100155.53
2023-02-14T03:51:39.260Z,100148.25
2023-02-14T03:52:51.926Z,100141.77
2023-02-14T03:54:02.709Z,100150.58
2023-02-14T03:55:12.886Z,100156.41
2023-02-14T03:56:43.059Z,100156.41
2023-02-14T03:59:35.739Z,100131.67
2023-02-14T04:00:46.116Z,100138.01
2023-02-14T04:02:12.461Z,100141.17
2023-02-14T04:03:25.869Z,100151.86
2023-02-14T04:05:54.526Z,100156.59
2023-02-14T04:07:12.547Z,100146.58
2023-02-14T04:08:25.939Z,100143.23
2023-02-14T04:09:34.996Z,100156.77
2023-02-14T04:10:44.065Z,100156.31
2023-02-14T04:13:07.695Z,100158.32
2023-02-14T04:14:17.735Z,100165.35
2023-02-14T04:15:26.459Z,100161.56
2023-02-14T04:16:37.758Z,100170.75
2023-02-14T04:18:05.333Z,100175.06
2023-02-14T04:19:23.076Z,100170.32
2023-02-14T04:20:32.262Z,100176.35
2023-02-14T04:21:41.497Z,100177.23
2023-02-14T04:22:52.252Z,100184.34
2023-02-14T04:24:00.629Z,100183.98
2023-02-14T04:25:09.654Z,100187.16
2023-02-14T04:26:20.194Z,100195.08
2023-02-14T04:27:29.776Z,100189.98
2023-02-14T04:28:39.308Z,100191.80
2023-02-14T04:29:50.408Z,100196.36
2023-02-14T04:31:05.042Z,100194.20
2023-02-14T04:33:34.334Z,100175.16
2023-02-14T04:34:45.174Z,100197.47
2023-02-14T04:35:54.114Z,100193.15
2023-02-14T04:37:05.023Z,100193.70
2023-02-14T04:38:15.715Z,100206.95
2023-02-14T04:39:24.840Z,100198.20
2023-02-14T04:40:34.884Z,100203.84
2023-02-14T04:41:43.407Z,100197.84
2023-02-14T04:42:52.360Z,100199.18
2023-02-14T04:44:02.029Z,100197.14
2023-02-14T04:45:11.556Z,100198.20
2023-02-14T04:46:21.630Z,100204.91
2023-02-14T04:47:31.514Z,100211.35
2023-02-14T04:48:40.044Z,100208.25
2023-02-14T04:49:48.728Z,100210.84
2023-02-14T04:52:13.750Z,100208.77
2023-02-14T04:53:22.423Z,100201.48
2023-02-14T04:54:32.494Z,100209.83
2023-02-14T04:55:43.236Z,100214.67
2023-02-14T04:56:53.800Z,100215.78
2023-02-14T04:58:02.314Z,100213.37
2023-02-14T04:59:12.567Z,100206.80
2023-02-14T05:00:22.760Z,100220.76
2023-02-14T05:01:32.221Z,100228.42
2023-02-14T05:02:41.868Z,100227.36
2023-02-14T05:03:50.477Z,100235.88
2023-02-14T05:05:00.127Z,100228.28
2023-02-14T05:06:08.722Z,100223.70
2023-02-14T05:07:17.428Z,100227.73
2023-02-14T05:08:27.255Z,100230.55
2023-02-14T05:09:36.777Z,100230.80
2023-02-14T05:10:46.507Z,100243.97
2023-02-14T05:11:56.057Z,100236.87
2023-02-14T05:13:04.791Z,100238.91
2023-02-14T05:14:13.322Z,100234.88
2023-02-14T05:15:22.934Z,100225.86
2023-02-14T05:16:31.991Z,100231.47
2023-02-14T05:17:41.310Z,100227.21
2023-02-14T05:18:49.963Z,100226.36
2023-02-14T05:19:59.542Z,100234.67
2023-02-14T05:21:08.444Z,100220.30
2023-02-14T05:22:18.614Z,100218.55
2023-02-14T05:23:27.850Z,100221.22
2023-02-14T05:24:37.397Z,100225.14
2023-02-14T05:25:49.473Z,100218.67
2023-02-14T05:26:59.224Z,100217.08
2023-02-14T05:28:10.515Z,100219.60
2023-02-14T05:29:19.901Z,100224.92
2023-02-14T05:30:30.444Z,100221.67
2023-02-14T05:31:40.284Z,100217.84
2023-02-14T05:32:48.972Z,100222.42
2023-02-14T05:35:13.710Z,100222.95
2023-02-14T05:36:23.515Z,100229.27
2023-02-14T05:37:32.638Z,100231.47
2023-02-14T05:38:41.855Z,100219.60
2023-02-14T05:41:08.704Z,100222.23
2023-02-14T05:42:18.260Z,100226.97
2023-02-14T05:43:28.082Z,100233.03
2023-02-14T05:44:37.585Z,100231.38
2023-02-14T05:45:46.170Z,100238.70
2023-02-14T05:46:55.952Z,100237.72
2023-02-14T05:49:21.554Z,100224.88
2023-02-14T05:50:31.623Z,100235.41
2023-02-14T05:51:41.173Z,100238.25
2023-02-14T05:52:49.907Z,100233.20
2023-02-14T05:54:00.808Z,100242.11
2023-02-14T05:55:10.718Z,100242.32
2023-02-14T05:56:20.464Z,100247.27
2023-02-14T05:57:30.152Z,100248.80
2023-02-14T05:58:38.671Z,100253.52
2023-02-14T05:59:47.756Z,100255.83
2023-02-14T06:02:20.398Z,100243.02
2023-02-14T06:03:30.115Z,100254.89
2023-02-14T06:04:39.725Z,100251.88
2023-02-14T06:05:55.879Z,100249.95
2023-02-14T06:07:04.812Z,100257.48
2023-02-14T06:08:14.561Z,100264.88
2023-02-14T06:09:23.223Z,100257.25
2023-02-14T06:10:33.332Z,100269.67
2023-02-14T06:12:57.044Z,100258.17
2023-02-14T06:14:05.875Z,100261.51
2023-02-14T06:15:14.598Z,100276.88
2023-02-14T06:16:24.255Z,100275.34
2023-02-14T06:17:33.964Z,100266.13
2023-02-14T06:18:43.670Z,100270.78
2023-02-14T06:19:52.697Z,100278.96
2023-02-14T06:21:02.291Z,100268.66
2023-02-14T06:22:11.709Z,100271.25
2023-02-14T06:23:20.784Z,100273.02
2023-02-14T06:24:29.850Z,100260.13
2023-02-14T06:25:39.514Z,100272.20
2023-02-14T06:26:51.694Z,100270.70
2023-02-14T06:28:02.038Z,100267.75
2023-02-14T06:30:27.853Z,100260.75
2023-02-14T06:31:36.651Z,100267.67
2023-02-14T06:32:45.698Z,100272.67
2023-02-14T06:33:54.966Z,100256.56
2023-02-14T06:35:04.655Z,100262.01
2023-02-14T06:36:15.218Z,100259.53
2023-02-14T06:37:24.859Z,100254.94
2023-02-14T06:38:34.575Z,100261.27
2023-02-14T06:39:44.222Z,100263.05
2023-02-14T06:40:53.962Z,100264.94
2023-02-14T06:42:02.467Z,100261.45
2023-02-14T06:43:13.384Z,100260.75
2023-02-14T06:44:23.835Z,100260.67
2023-02-14T06:45:33.839Z,100256.34
2023-02-14T06:46:42.818Z,100254.30
2023-02-14T06:47:51.425Z,100249.56
2023-02-14T06:49:00.264Z,100260.94
2023-02-14T06:50:12.069Z,100261.96
2023-02-14T06:51:21.009Z,100260.16
2023-02-14T06:52:30.689Z,100269.36
2023-02-14T06:53:39.923Z,100258.09
2023-02-14T06:54:48.550Z,100255.97
2023-02-14T06:55:57.063Z,100266.41
2023-02-14T06:57:06.244Z,100263.71
2023-02-14T06:58:15.145Z,100262.61
2023-02-14T06:59:23.886Z,100271.27
2023-02-14T07:00:33.698Z,100264.28
2023-02-14T07:01:42.667Z,100265.42
2023-02-14T07:02:52.294Z,100255.22
2023-02-14T07:04:02.910Z,100261.83
2023-02-14T07:05:11.885Z,100267.90
2023-02-14T07:06:21.759Z,100265.27
2023-02-14T07:07:30.630Z,100259.38
2023-02-14T07:08:39.352Z,100259.02
2023-02-14T07:09:48.945Z,100264.17
2023-02-14T07:10:59.018Z,100254.77
2023-02-14T07:12:09.093Z,100262.43
2023-02-14T07:13:18.500Z,100272.09
2023-02-14T07:14:27.528Z,100265.70
2023-02-14T07:16:50.975Z,100256.49
2023-02-14T07:18:00.686Z,100262.58
2023-02-14T07:19:09.306Z,100252.48
2023-02-14T07:20:19.980Z,100252.56
2023-02-14T07:21:28.616Z,100254.58
2023-02-14T07:23:54.964Z,100256.34
2023-02-14T07:25:05.636Z,100260.16
2023-02-14T07:27:32.943Z,100259.86
2023-02-14T07:28:45.108Z,100268.14
2023-02-14T07:29:53.781Z,100259.02
2023-02-14T07:31:03.886Z,100265.15
2023-02-14T07:32:13.713Z,100264.34
2023-02-14T07:33:25.267Z,100260.08
2023-02-14T07:34:34.290Z,100255.75
2023-02-14T07:35:43.955Z,100257.70
2023-02-14T07:36:53.135Z,100259.55
2023-02-14T07:38:01.700Z,100258.63
2023-02-14T07:39:11.001Z,100249.89
2023-02-14T07:40:21.150Z,100249.66
2023-02-14T07:41:30.039Z,100249.52
2023-02-14T07:42:39.588Z,100259.17
2023-02-14T07:43:48.716Z,100258.49
2023-02-14T07:44:57.414Z,100261.76
2023-02-14T07:47:22.111Z,100245.02
2023-02-14T07:49:46.780Z,100252.77
2023-02-14T07:50:57.118Z,100258.17
2023-02-14T07:52:06.113Z,100257.85
2023-02-14T07:53:14.662Z,100256.19
2023-02-14T07:54:24.619Z,100255.13
2023-02-14T07:55:33.197Z,100259.38
2023-02-14T07:56:43.170Z,100263.71
2023-02-14T07:59:08.238Z,100259.55
2023-02-14T08:00:19.191Z,100266.48
2023-02-14T08:01:28.030Z,100264.77
2023-02-14T08:03:52.209Z,100257.43
2023-02-14T08:05:00.928Z,100256.19
2023-02-14T08:07:25.128Z,100264.70
2023-02-14T08:08:34.675Z,100267.69
2023-02-14T08:10:59.639Z,100263.57
2023-02-14T08:12:28.905Z,100267.69
2023-02-14T08:13:38.103Z,100267.69
2023-02-14T08:14:48.507Z,100265.95
2023-02-14T08:16:07.213Z,100268.08
2023-02-14T08:17:17.178Z,100270.74
2023-02-14T08:18:27.719Z,100281.25
2023-02-14T08:19:38.015Z,100261.09
2023-02-14T08:22:04.498Z,100252.69
2023-02-14T08:24:28.254Z,100263.03
2023-02-14T08:25:38.536Z,100267.95
2023-02-14T08:26:48.050Z,100273.44
2023-02-14T08:27:57.203Z,100267.87
2023-02-14T08:30:41.454Z,100263.42
2023-02-14T08:33:06.609Z,100269.13
2023-02-14T08:34:15.878Z,100275.86
2023-02-14T08:35:26.675Z,100263.30
2023-02-14T08:36:35.079Z,100267.53
2023-02-14T08:37:44.454Z,100272.99
2023-02-14T08:38:54.819Z,100274.80
2023-02-14T08:41:19.658Z,100280.32
2023-02-14T08:43:45.234Z,100279.61
2023-02-14T08:44:54.939Z,100281.19
2023-02-14T08:46:04.452Z,100285.66
2023-02-14T08:48:28.260Z,100278.39
2023-02-14T08:49:36.804Z,100274.13
2023-02-14T08:52:01.095Z,100273.02
2023-02-14T08:53:13.002Z,100271.88
2023-02-14T08:54:21.778Z,100278.75
2023-02-14T08:55:31.449Z,100277.23
2023-02-14T08:56:40.761Z,100273.29
2023-02-14T08:59:05.332Z,100275.04
2023-02-14T09:01:32.481Z,100280.84
2023-02-14T09:02:42.296Z,100280.84
2023-02-14T09:05:08.799Z,100283.16
2023-02-14T09:06:18.029Z,100299.39
2023-02-14T09:07:27.247Z,100305.77
2023-02-14T09:08:37.779Z,100295.30
2023-02-14T09:09:47.652Z,100299.46
2023-02-14T09:10:57.324Z,100298.78
2023-02-14T09:12:09.245Z,100301.44
2023-02-14T09:13:18.350Z,100299.08
2023-02-14T09:14:26.887Z,100304.95
2023-02-14T09:15:36.845Z,100310.47
2023-02-14T09:16:45.905Z,100312.14
2023-02-14T09:19:09.427Z,100297.36
2023-02-14T09:21:37.363Z,100295.78
2023-02-14T09:22:48.762Z,100300.38
2023-02-14T09:23:57.457Z,100295.20
2023-02-14T09:25:07.537Z,100303.34
2023-02-14T09:26:19.569Z,100283.58
2023-02-14T09:27:30.422Z,100295.69
2023-02-14T09:29:56.326Z,100297.79
2023-02-14T09:31:10.758Z,100300.69
2023-02-14T09:32:20.220Z,100294.74
2023-02-14T09:33:29.951Z,100296.61
2023-02-14T09:36:30.072Z,100295.78
2023-02-14T09:38:54.829Z,100289.73
2023-02-14T09:41:31.001Z,100276.30
2023-02-14T09:44:26.399Z,100285.03
2023-02-14T09:45:36.585Z,100286.47
2023-02-14T09:46:49.043Z,100283.02
2023-02-14T09:49:23.564Z,100269.51
2023-02-14T09:50:54.833Z,100275.20
2023-02-14T09:52:07.186Z,100274.28
2023-02-14T09:54:48.327Z,100267.91
2023-02-14T09:56:04.837Z,100269.81
2023-02-14T10:00:36.557Z,100286.23
2023-02-14T10:03:17.927Z,100280.52
2023-02-14T10:04:38.205Z,100279.34
2023-02-14T10:06:08.352Z,100280.66
2023-02-14T10:07:23.455Z,100276.73
2023-02-14T10:10:19.914Z,100263.92
2023-02-14T10:14:47.940Z,100266.41
2023-02-14T10:18:57.854Z,100280.36
2023-02-14T10:23:08.153Z,100274.45
2023-02-14T10:24:26.446Z,100277.46
2023-02-14T10:26:58.262Z,100267.30
2023-02-14T10:28:10.660Z,100273.94
2023-02-14T10:32:37.353Z,100271.34
2023-02-14T10:35:28.348Z,100267.37
2023-02-14T10:36:53.166Z,100265.30
2023-02-14T10:39:38.180Z,100266.27
2023-02-14T10:41:12.158Z,100286.64
2023-02-14T10:42:30.882Z,100264.97
2023-02-14T10:43:43.730Z,100265.48
2023-02-14T10:46:56.757Z,100269.64
2023-02-14T10:50:12.846Z,100270.53
2023-02-14T10:51:28.565Z,100264.49
2023-02-14T10:52:41.152Z,100268.89
2023-02-14T10:55:51.462Z,100250.44
2023-02-14T10:57:04.210Z,100263.68
2023-02-14T10:58:18.577Z,100281.14
2023-02-14T10:59:37.557Z,100270.77
2023-02-14T11:01:02.657Z,100261.33
2023-02-14T11:02:15.426Z,100263.41
2023-02-14T11:03:27.324Z,100266.68
2023-02-14T11:04:37.892Z,100272.07
2023-02-14T11:05:49.669Z,100259.21
2023-02-14T11:09:36.916Z,100273.39
2023-02-14T11:10:47.255Z,100263.95
2023-02-14T11:11:59.452Z,100271.39
2023-02-14T11:14:35.292Z,100260.30
2023-02-14T11:15:49.448Z,100268.34
2023-02-14T11:16:59.382Z,100265.48
2023-02-14T11:18:24.303Z,100269.27
2023-02-14T11:19:37.143Z,100269.81
2023-02-14T11:22:09.343Z,100272.41
2023-02-14T11:23:21.524Z,100270.27
2023-02-14T11:25:53.204Z,100267.97
2023-02-14T11:28:25.159Z,100269.68
2023-02-14T11:30:53.412Z,100267.67
2023-02-14T11:33:47.877Z,100272.99
2023-02-14T11:35:22.634Z,100271.84
2023-02-14T11:36:33.447Z,100278.48
2023-02-14T11:40:39.813Z,100265.48
2023-02-14T11:41:52.839Z,100281.57
2023-02-14T11:44:32.761Z,100276.30
2023-02-14T11:47:28.431Z,100287.87
2023-02-14T11:48:39.323Z,100282.45
2023-02-14T11:50:02.770Z,100284.09
2023-02-14T11:52:30.189Z,100287.80
2023-02-14T11:53:48.573Z,100287.58
2023-02-14T11:54:58.899Z,100281.99
2023-02-14T11:56:08.429Z,100279.05
2023-02-14T11:57:21.334Z,100274.34
2023-02-14T11:58:40.015Z,100272.88
2023-02-14T12:01:14.437Z,100281.11
2023-02-14T12:04:00.955Z,100274.87
2023-02-14T12:05:25.795Z,100282.38
2023-02-14T12:06:36.534Z,100275.81
2023-02-14T12:10:31.771Z,100271.25
2023-02-14T12:13:02.723Z,100272.59
2023-02-14T12:15:43.163Z,100268.41
2023-02-14T12:19:58.243Z,100268.66
2023-02-14T12:23:00.854Z,100273.57
2023-02-14T12:24:39.801Z,100274.97
2023-02-14T12:25:54.072Z,100276.73
2023-02-14T12:27:07.637Z,100282.68
2023-02-14T12:28:23.227Z,100274.83
2023-02-14T12:29:45.265Z,100272.86
2023-02-14T12:30:55.232Z,100279.30
2023-02-14T12:32:22.868Z,100270.36
2023-02-14T12:33:33.631Z,100269.95
2023-02-14T12:34:42.768Z,100269.58
2023-02-14T12:39:15.941Z,100279.38
2023-02-14T12:42:19.209Z,100280.05
2023-02-14T12:43:36.117Z,100289.73
2023-02-14T12:44:58.342Z,100301.00
2023-02-14T12:47:51.188Z,100269.92
2023-02-14T12:49:29.613Z,100288.82
2023-02-14T12:52:16.633Z,100291.97
2023-02-14T12:55:51.607Z,100287.84
2023-02-14T12:57:10.245Z,100290.09
2023-02-14T12:58:43.820Z,100296.25
2023-02-14T13:00:14.624Z,100287.22
2023-02-14T13:01:38.811Z,100299.39
2023-02-14T13:03:03.296Z,100289.06
2023-02-14T13:06:06.204Z,100297.72
2023-02-14T13:07:32.842Z,100287.58
2023-02-14T13:10:26.757Z,100285.27
2023-02-14T13:11:46.067Z,100286.59
2023-02-14T13:14:44.955Z,100284.48
2023-02-14T13:18:56.824Z,100305.64
2023-02-14T13:20:15.031Z,100293.20
2023-02-14T13:21:27.364Z,100307.19
2023-02-14T13:22:39.728Z,100302.72
2023-02-14T13:25:28.643Z,100295.06
2023-02-14T13:28:03.882Z,100306.98
2023-02-14T13:29:24.111Z,100312.44
2023-02-14T13:30:38.105Z,100315.23
2023-02-14T13:31:48.280Z,100310.67
2023-02-14T13:34:36.992Z,100294.14
2023-02-14T13:35:48.220Z,100309.42
2023-02-14T13:36:59.212Z,100311.26
2023-02-14T13:38:12.890Z,100306.27
2023-02-14T13:40:50.844Z,100316.91
2023-02-14T13:42:01.888Z,100321.30
2023-02-14T13:43:10.864Z,100340.09
2023-02-14T13:44:40.352Z,100321.80
2023-02-14T13:45:55.874Z,100327.68
2023-02-14T13:48:29.188Z,100337.08
2023-02-14T13:49:41.980Z,100327.91
2023-02-14T13:51:07.721Z,100341.05
2023-02-14T13:52:36.460Z,100340.59
2023-02-14T13:53:48.994Z,100324.46
2023-02-14T13:55:06.196Z,100342.40
2023-02-14T13:56:20.384Z,100334.35
2023-02-14T13:57:35.866Z,100346.86
2023-02-14T13:59:00.169Z,100347.03
2023-02-14T14:00:22.321Z,100334.97
2023-02-14T14:03:00.972Z,100320.75
2023-02-14T14:04:31.751Z,100360.88
2023-02-14T14:05:47.038Z,100344.56
2023-02-14T14:07:10.070Z,100353.20
2023-02-14T14:08:26.659Z,100362.61
2023-02-14T14:09:51.119Z,100362.11
2023-02-14T14:12:34.732Z,100345.77
2023-02-14T14:14:04.476Z,100363.15
2023-02-14T14:15:16.191Z,100366.72
2023-02-14T14:16:29.169Z,100384.03
2023-02-14T14:17:45.504Z,100375.73
2023-02-14T14:19:10.171Z,100374.49
2023-02-14T14:20:23.135Z,100376.66
2023-02-14T14:21:35.427Z,100370.09
2023-02-14T14:22:57.364Z,100376.84
2023-02-14T14:24:27.396Z,100378.27
2023-02-14T14:25:41.739Z,100387.20
2023-02-14T14:27:04.009Z,100386.19
2023-02-14T14:29:39.445Z,100379.28
2023-02-14T14:30:49.887Z,100392.39
2023-02-14T14:31:58.750Z,100392.16
2023-02-14T14:33:26.579Z,100396.30
2023-02-14T14:34:36.926Z,100393.37
2023-02-14T14:36:01.917Z,100388.44
2023-02-14T14:37:21.259Z,100395.23
2023-02-14T14:40:10.653Z,100390.32
2023-02-14T14:41:28.556Z,100410.17
2023-02-14T14:43:54.801Z,100398.36
2023-02-14T14:45:11.706Z,100404.13
2023-02-14T14:46:23.824Z,100403.20
2023-02-14T14:47:44.920Z,100402.20
2023-02-14T14:48:56.546Z,100413.72
2023-02-14T14:50:10.859Z,100413.27
2023-02-14T14:51:31.928Z,100420.86
2023-02-14T14:52:49.965Z,100410.62
2023-02-14T14:54:02.780Z,100420.45
2023-02-14T14:56:41.911Z,100420.13
2023-02-14T14:57:53.133Z,100417.67
2023-02-14T14:59:33.257Z,100426.56
2023-02-14T15:02:01.570Z,100423.48
2023-02-14T15:03:17.558Z,100437.48
2023-02-14T15:05:49.482Z,100437.80
2023-02-14T15:07:21.428Z,100444.20
2023-02-14T15:08:31.752Z,100443.53
2023-02-14T15:09:42.834Z,100449.34
2023-02-14T15:12:37.115Z,100444.37
2023-02-14T15:15:08.030Z,100451.91
2023-02-14T15:16:24.631Z,100452.11
2023-02-14T15:17:33.814Z,100464.36
2023-02-14T15:18:47.281Z,100465.75
2023-02-14T15:20:03.027Z,100459.33
2023-02-14T15:21:13.840Z,100459.22
2023-02-14T15:22:29.093Z,100458.61
2023-02-14T15:23:37.894Z,100461.94
2023-02-14T15:26:34.232Z,100461.27
2023-02-14T15:27:44.130Z,100464.78
2023-02-14T15:30:25.677Z,100473.17
2023-02-14T15:31:38.879Z,100475.22
2023-02-14T15:32:50.479Z,100468.52
2023-02-14T15:36:38.102Z,100465.28
2023-02-14T15:37:50.789Z,100462.59
2023-02-14T15:40:25.446Z,100456.98
2023-02-14T15:41:34.268Z,100459.88
2023-02-14T15:44:00.810Z,100473.59
2023-02-14T15:46:41.950Z,100480.48
2023-02-14T15:47:57.368Z,100479.03
2023-02-14T15:50:40.124Z,100482.58
2023-02-14T15:51:51.216Z,100485.40
2023-02-14T15:53:06.339Z,100482.02
2023-02-14T15:54:24.717Z,100487.27
2023-02-14T15:55:36.110Z,100495.53
2023-02-14T15:58:11.899Z,100492.94
2023-02-14T15:59:25.509Z,100500.33
2023-02-14T16:00:35.632Z,100504.47
2023-02-14T16:01:58.237Z,100508.69
2023-02-14T16:04:29.445Z,100505.69
2023-02-14T16:05:38.349Z,100516.31
2023-02-14T16:07:03.608Z,100508.06
2023-02-14T16:08:31.270Z,100518.63
2023-02-14T16:09:40.707Z,100524.69
2023-02-14T16:11:10.102Z,100517.84
2023-02-14T16:12:32.271Z,100522.42
2023-02-14T16:15:12.525Z,100517.95
2023-02-14T16:16:22.968Z,100528.68
2023-02-14T16:17:34.270Z,100532.24
2023-02-14T16:18:49.769Z,100530.32
2023-02-14T16:19:58.992Z,100538.36
2023-02-14T16:21:23.577Z,100530.32
2023-02-14T16:22:32.224Z,100535.23
2023-02-14T16:23:42.334Z,100542.70
2023-02-14T16:24:50.974Z,100531.61
2023-02-14T16:26:00.180Z,100534.80
2023-02-14T16:27:09.080Z,100534.69
2023-02-14T16:28:18.882Z,100535.69
2023-02-14T16:29:28.323Z,100537.39
2023-02-14T16:30:39.462Z,100547.00
2023-02-14T16:32:15.727Z,100545.31
2023-02-14T16:33:02.560Z,100542.64
2023-02-14T16:35:30.845Z,100540.00
2023-02-14T16:36:40.321Z,100543.67
2023-02-14T16:37:51.928Z,100543.67
2023-02-14T16:39:04.755Z,100549.71
2023-02-14T16:40:16.792Z,100540.36
2023-02-14T16:42:43.837Z,100558.83
2023-02-14T16:43:54.812Z,100564.47
2023-02-14T16:45:03.700Z,100562.83
2023-02-14T16:46:14.987Z,100555.35
2023-02-14T16:47:25.835Z,100562.66
2023-02-14T16:48:34.172Z,100556.67
2023-02-14T16:49:43.724Z,100562.61
2023-02-14T16:50:52.458Z,100557.88
2023-02-14T16:52:02.570Z,100565.97
2023-02-14T16:54:40.674Z,100559.16
2023-02-14T16:55:52.238Z,100569.20
2023-02-14T16:57:03.560Z,100572.75
2023-02-14T16:58:14.504Z,100591.39
2023-02-14T17:00:39.560Z,100569.03
2023-02-14T17:01:50.797Z,100579.13
2023-02-14T17:03:06.047Z,100590.02
2023-02-14T17:04:15.537Z,100592.03
2023-02-14T17:05:25.448Z,100590.22
2023-02-14T17:06:37.835Z,100583.64
2023-02-14T17:07:46.858Z,100582.84
2023-02-14T17:08:58.070Z,100595.42
2023-02-14T17:10:11.747Z,100603.39
2023-02-14T17:11:24.398Z,100604.34
2023-02-14T17:12:37.097Z,100612.31
2023-02-14T17:13:47.451Z,100594.58
2023-02-14T17:15:00.802Z,100606.95
2023-02-14T17:16:12.029Z,100612.31
2023-02-14T17:17:21.771Z,100623.14